Wednesday, October 22, 2014, 11:44 PM EDT

KFDK, Frederick, Frederick Municipal Airport

Location: Frederick, MD, United States Lat: 39.417
Local Time: 11:44 PM EDT ( 3:44 GMT) Lon: -77.374
Time Zone: US/Eastern Elev: 301 ft

Show me the last for .
Show Decoded

2014-10-22 23:30 METAR KFDK 230330Z AUTO 32007KT 10SM OVC038 13/06 A2999 RMK AO2 LTG DSNT E =
2014-10-22 23:10 METAR KFDK 230310Z AUTO 33006KT 10SM SCT040 13/06 A2999 RMK AO2 LTG DSNT E =
2014-10-22 22:50 METAR KFDK 230250Z AUTO 33007G17KT 10SM BKN036 13/06 A3000 RMK AO2 LTG DSNT E =
2014-10-22 22:30 METAR KFDK 230230Z AUTO 34010G15KT 10SM BKN036 BKN075 13/06 A2999 RMK AO2 LTG
                 DSNT E =
2014-10-22 22:10 METAR KFDK 230210Z AUTO 32010G16KT 10SM OVC038 13/06 A3000 RMK AO2 LTG DSNT E =
2014-10-22 21:50 METAR KFDK 230150Z AUTO 33008KT 10SM BKN038 BKN110 13/06 A3000 RMK AO2 LTG DSNT
                 E =
2014-10-22 21:30 METAR KFDK 230130Z AUTO 33008KT 10SM BKN038 BKN110 13/06 A3000 RMK AO2 LTG DSNT
                 E AND SE =
2014-10-22 21:10 METAR KFDK 230110Z AUTO 33010KT 10SM OVC036 14/06 A3001 RMK AO2 LTG DSNT E =
2014-10-22 20:50 METAR KFDK 230050Z AUTO 33009KT 10SM OVC034 15/06 A3000 RMK AO2 LTG DSNT E =
2014-10-22 19:57 METAR KFDK 222357Z 35010G15KT 10SM OVC035 16/07 A2999 =
2014-10-22 18:55 METAR KFDK 222255Z 35008KT 10SM OVC037 16/07 A2999 =
2014-10-22 17:55 METAR KFDK 222155Z 35010G16KT 10SM OVC037 16/08 A2998 =
2014-10-22 16:45 METAR KFDK 222045Z 36008G16KT 10SM BKN031 16/09 A2999 =
2014-10-22 15:59 METAR KFDK 221959Z 35010KT 10SM BKN025 16/09 A2999 =
2014-10-22 14:45 METAR KFDK 221845Z 01008G17KT 10SM -RA BKN027 OVC035 16/10 A2999 =
2014-10-22 13:59 METAR KFDK 221759Z 36007KT 10SM BKN025 OVC033 16/10 A2999 =
2014-10-22 12:50 METAR KFDK 221650Z 36010KT 3SM BR OVC025 14/11 A3000 =
2014-10-22 11:45 METAR KFDK 221545Z 01011G14KT 10SM -RA OVC025 15/10 A3000 =
2014-10-22 10:55 METAR KFDK 221455Z 01013G16KT 10SM -RA OVC027 17/09 A2999 =
2014-10-22 09:59 METAR KFDK 221359Z 01007KT 10SMK BKN031 OVC038 16/09 A2999 =
2014-10-22 08:45 METAR KFDK 221245Z 01009G15 10SM SCT039 BKN047 OVC110 15/09 A2997 =
2014-10-22 07:45 METAR KFDK 221145Z 01008G14KT 10SM SCT027 OVC038 14/10 A2996 =
2014-10-22 06:45 METAR KFDK 221045Z 02005KT 7 -DZ OVC027 14/11 A2994 =
2014-10-22 06:30 METAR KFDK 221030Z AUTO 01005KT 10SM -RA BKN025 BKN034 OVC045 13/10 A2994 RMK
                 AO2 LTG DSNT E AND SE P0003 =
2014-10-22 06:10 METAR KFDK 221010Z AUTO 01007KT 10SM -RA BKN023 BKN039 OVC070 13/10 A2994 RMK
                 AO2 LTG DSNT E AND SE P0001 =
2014-10-22 05:50 METAR KFDK 220950Z AUTO 01008KT 10SM RA BKN021 BKN048 OVC070 13/10 A2994 RMK AO2
                 LTG DSNT E P0001 =
2014-10-22 05:30 METAR KFDK 220930Z AUTO 01009KT 10SM -TSDZ BKN021 OVC026 13/11 A2994 RMK AO2 LTG
                 DSNT E P0001 =
2014-10-22 05:10 METAR KFDK 220910Z AUTO 36007KT 10SM -VCTSRA BKN026 BKN033 OVC039 13/11 A2993
                 RMK AO2 LTG DSNT E =
2014-10-22 04:50 METAR KFDK 220850Z AUTO 36005KT 7SM DZ OVC024 13/11 A2992 RMK AO2 LTG DSNT E
                 P0002 =
2014-10-22 04:30 METAR KFDK 220830Z AUTO 00000KT 5SM -RA BKN024 OVC031 13/11 A2992 RMK AO2 LTG
                 DSNT E P0001 =
2014-10-22 04:10 METAR KFDK 220810Z AUTO 00000KT 5SM -RA BKN028 OVC042 13/11 A2992 RMK AO2 LTG
                 DSNT SE =
2014-10-22 03:50 METAR KFDK 220750Z AUTO 00000KT 5SM -RA SCT031 SCT050 OVC070 13/11 A2992 RMK AO2
                 LTG DSNT E P0002 =
2014-10-22 03:30 METAR KFDK 220730Z AUTO 00000KT 4SM -RA OVC070 13/11 A2992 =
2014-10-22 03:10 METAR KFDK 220710Z AUTO 00000KT 5SM VCTSDZ SCT050 OVC070 13/11 A2992 RMK AO2 LTG
                 DSNT E =
2014-10-22 02:50 METAR KFDK 220650Z AUTO 00000KT 5SM -DZ SCT034 BKN050 OVC070 13/11 A2992 RMK AO2
                 LTG DSNT E =
2014-10-22 02:30 METAR KFDK 220630Z AUTO 00000KT 4SM -VCTSRA OVC034 13/11 A2992 RMK AO2 =
2014-10-22 02:10 METAR KFDK 220610Z AUTO 00000KT 5SM TS BR SCT034 OVC050 13/11 A2992 RMK AO2 LTG
                 DSNT E =
2014-10-22 01:50 METAR KFDK 220550Z AUTO 00000KT 7SM BKN050 OVC065 13/11 A2992 RMK AO2 P0003 =
2014-10-22 01:30 METAR KFDK 220530Z AUTO 00000KT 7SM -VCTSRA SCT031 SCT040 OVC065 13/11 A2993 RMK
                 AO2 LTG DSNT E P0002 =
2014-10-22 01:10 METAR KFDK 220510Z AUTO 00000KT 5SM -VCTSRA SCT031 BKN039 OVC065 13/11 A2994 RMK
                 AO2 LTG DSNT E P0001 =
2014-10-22 00:50 METAR KFDK 220450Z AUTO 00000KT 4SM RA SCT034 SCT046 OVC065 13/11 A2994 RMK AO2
                 LTG DSNT E P0008 =
2014-10-22 00:30 METAR KFDK 220430Z AUTO 00000KT 4SM VCTSRA SCT038 SCT050 OVC060 13/11 A2994 RMK
                 AO2 LTG DSNT E P0003 =
2014-10-22 00:10 METAR KFDK 220410Z AUTO 00000KT 7SM -RA SCT035 SCT050 OVC060 13/11 A2995 RMK AO2
                 LTG DSNT E AND SE =
2014-10-21 23:50 METAR KFDK 220350Z AUTO 00000KT 7SM -RA BKN060 OVC080 13/11 A2995 RMK AO2 LTG
                 DSNT E AND SE =

Support USWX by starting your Amazon purchase here.